CheckWX is a tool to help pilots better visualize weather data.  It is not intended as a substitute for an official pre-flight weather briefing.

09:01:15 UTC

KHPN METAR
Westchester County Airport
White Plains, New York, USA
Current

5 mins ago

KHPN 220856Z 30008KT 10SM FEW030 02/M05 A3019 RMK AO2 SLP228 T00221050 51015
Observed
Feb-22 @ 08:56 UTC
Wind
  • 300° at 8 KTS
Visibility
10 SM
Flight Rules
VFR
Cloud Levels
  • Few at 3,000' AGL
Temperature
C / 36°F
Dewpoint
-5°C / 23°F
Humidity
60%
Altimeter
30.19" Hg
Pressure
1022.8 hPa
Previous

1 hour ago

KHPN 220756Z 29009KT 10SM CLR 03/M06 A3019 RMK AO2 SLP227 T00281056
Observed
Feb-22 @ 07:56 UTC
Wind
  • 290° at 9 KTS
Visibility
10 SM
Flight Rules
VFR
Cloud Levels
  • Clear skies
Temperature
C / 37°F
Dewpoint
-6°C / 21°F
Humidity
52%
Altimeter
30.19" Hg
Pressure
1022.7 hPa
Previous

2 hours ago

KHPN 220656Z 30014KT 10SM CLR 03/M06 A3017 RMK AO2 SLP222 T00331056
Observed
Feb-22 @ 06:56 UTC
Wind
  • 300° at 14 KTS
Visibility
10 SM
Flight Rules
VFR
Cloud Levels
  • Clear skies
Temperature
C / 37°F
Dewpoint
-6°C / 21°F
Humidity
52%
Altimeter
30.17" Hg
Pressure
1022.2 hPa